| time (UTC) | temp F | wind direction | speed MPH | gust MPH | rain 1hr in | rain 24hr in | rain mn in | humidity % | barometer mb |
| 20260510070005 | 60 | 272 | 0.0 | 0.0 | 0.00 | 0.00 | 0.00 | 86 | 1014.0 |
| 20260510060004 | 60 | 272 | 0.0 | 0.0 | 0.00 | 0.00 | 0.00 | 82 | 1014.2 |
| 20260510050005 | 60 | 272 | 0.0 | 0.0 | 0.00 | 0.00 | 0.00 | 79 | 1014.1 |
| 20260510040004 | 62 | 272 | 0.0 | 0.0 | 0.00 | 0.00 | 0.00 | 74 | 1013.5 |
| 20260510030004 | 63 | 272 | 0.0 | 0.0 | 0.00 | 0.00 | 0.00 | 72 | 1012.9 |
| 20260510020004 | 67 | 272 | 0.0 | 0.0 | 0.00 | 0.00 | 0.00 | 66 | 1011.7 |
| 20260510010004 | 73 | 272 | 0.0 | 0.0 | 0.00 | 0.01 | 0.00 | 54 | 1011.0 |
| 20260510000004 | 77 | 272 | 0.0 | 0.0 | 0.00 | 0.01 | 0.00 | 44 | 1010.6 |
| 20260509230004 | 79 | 272 | 0.0 | 0.0 | 0.00 | 0.01 | 0.00 | 38 | 1010.7 |
| 20260509210004 | 81 | 272 | 0.0 | 0.0 | 0.00 | 0.01 | 0.00 | 37 | 1010.9 |
| 20260509200005 | 81 | 272 | 0.0 | 0.0 | 0.00 | 0.01 | 0.00 | 38 | 1011.5 |
| 20260509190006 | 79 | 272 | 0.0 | 0.0 | 0.00 | 0.01 | 0.00 | 39 | 1012.1 |
| 20260509170004 | 77 | 272 | 0.0 | 0.0 | 0.00 | 0.01 | 0.00 | 51 | 1012.7 |
| 20260509160004 | 74 | 272 | 0.0 | 0.0 | 0.00 | 0.01 | 0.00 | 61 | 1012.7 |
| 20260509150005 | 70 | 272 | 0.0 | 0.0 | 0.00 | 0.01 | 0.00 | 76 | 1012.6 |
| 20260509140005 | 67 | 272 | 0.0 | 0.0 | 0.00 | 0.01 | 0.00 | 86 | 1012.2 |
| 20260509130005 | 62 | 272 | 0.0 | 0.0 | 0.00 | 0.01 | 0.00 | 97 | 1011.9 |
| 20260509120004 | 55 | 272 | 0.0 | 0.0 | 0.00 | 0.01 | 0.00 | 100 | 1011.3 |
| 20260509110004 | 55 | 272 | 0.0 | 0.0 | 0.00 | 0.01 | 0.00 | 99 | 1010.6 |
| 20260509080004 | 59 | 272 | 0.0 | 0.0 | 0.00 | 0.01 | 0.00 | 93 | 1011.0 |